Time;durP1;ratioP1;P1;durP2;ratioP2;P2;SDS_P1;SDS_P2;PMS_P1;PMS_P2;Temp;Humidity;BMP_temperature;BMP_pressure;BME280_temperature;BME280_humidity;BME280_pressure;Samples;Min_cycle;Max_cycle;Signal;HPM_P1;HPM_P2
2021/05/20 00:00:35;;;;;;;4.00;2.90;;;10.20;99.90;;;;;;4173602;28;20199;-70
2021/05/20 00:02:37;;;;;;;4.43;3.17;;;10.20;99.90;;;;;;4177037;28;20219;-71
2021/05/20 00:04:39;;;;;;;5.03;3.03;;;10.20;99.90;;;;;;4172905;28;20230;-71
2021/05/20 00:06:40;;;;;;;4.47;3.20;;;10.20;99.90;;;;;;4176084;28;20229;-72
2021/05/20 00:08:41;;;;;;;3.80;2.90;;;10.20;99.90;;;;;;4175839;28;20320;-71
2021/05/20 00:10:43;;;;;;;3.57;2.87;;;10.20;99.90;;;;;;4179167;28;20665;-72
2021/05/20 00:12:45;;;;;;;3.03;2.67;;;10.10;99.90;;;;;;4171908;28;20206;-71
2021/05/20 00:14:46;;;;;;;4.93;3.23;;;10.10;99.90;;;;;;4173784;28;20210;-71
2021/05/20 00:16:48;;;;;;;4.73;3.20;;;10.10;99.90;;;;;;4177168;28;20239;-72
2021/05/20 00:18:49;;;;;;;5.80;3.40;;;10.00;99.90;;;;;;4172545;28;20238;-72
2021/05/20 00:20:50;;;;;;;3.67;2.83;;;10.00;99.90;;;;;;4171899;28;20210;-72
2021/05/20 00:22:52;;;;;;;4.57;2.97;;;9.90;99.90;;;;;;4168909;28;20653;-70
2021/05/20 00:24:53;;;;;;;4.30;3.00;;;9.90;99.90;;;;;;4174189;28;20222;-72
2021/05/20 00:26:55;;;;;;;3.87;2.70;;;9.90;99.90;;;;;;4170468;28;20277;-71
2021/05/20 00:28:56;;;;;;;3.37;2.67;;;9.90;99.90;;;;;;4169183;28;20276;-71
2021/05/20 00:30:57;;;;;;;4.40;3.20;;;9.90;99.90;;;;;;4173552;28;20211;-72
2021/05/20 00:32:58;;;;;;;5.10;2.53;;;9.90;99.90;;;;;;4179637;28;20261;-72
2021/05/20 00:34:59;;;;;;;3.77;2.70;;;9.90;99.90;;;;;;4174317;28;20214;-72
2021/05/20 00:37:01;;;;;;;2.90;2.33;;;9.80;99.90;;;;;;4172876;28;20242;-71
2021/05/20 00:39:03;;;;;;;4.07;2.63;;;9.80;99.90;;;;;;4165221;28;20234;-72
2021/05/20 00:41:04;;;;;;;3.57;2.50;;;9.90;99.90;;;;;;4174192;28;20215;-72
2021/05/20 00:43:06;;;;;;;4.47;2.50;;;9.80;99.90;;;;;;4172832;28;20480;-72
2021/05/20 00:45:08;;;;;;;3.93;2.50;;;9.80;99.90;;;;;;4164234;28;20602;-72
2021/05/20 00:47:10;;;;;;;4.07;2.20;;;9.80;99.90;;;;;;4169126;28;20660;-71
2021/05/20 00:49:11;;;;;;;2.80;2.23;;;9.80;99.90;;;;;;4165247;28;20489;-72
2021/05/20 00:51:12;;;;;;;3.37;2.57;;;9.80;99.90;;;;;;4167477;28;20621;-72
2021/05/20 00:53:15;;;;;;;3.30;2.37;;;9.70;99.90;;;;;;4168846;28;20711;-72
2021/05/20 00:55:19;;;;;;;4.40;2.60;;;9.70;99.90;;;;;;4168618;28;20211;-71
2021/05/20 00:57:21;;;;;;;2.80;2.00;;;9.70;99.90;;;;;;4167648;28;20469;-72
2021/05/20 00:59:24;;;;;;;3.70;2.50;;;9.70;99.90;;;;;;4196555;23;20226;-82
2021/05/20 01:01:25;;;;;;;2.83;2.30;;;9.70;99.90;;;;;;4168123;28;20678;-82
2021/05/20 01:03:26;;;;;;;3.43;2.37;;;9.80;99.90;;;;;;4167144;28;20607;-82
2021/05/20 01:05:28;;;;;;;2.50;2.00;;;9.60;99.90;;;;;;4169955;28;20218;-82
2021/05/20 01:07:29;;;;;;;4.57;2.57;;;9.60;99.90;;;;;;4167899;28;20465;-81
2021/05/20 01:09:31;;;;;;;2.93;2.27;;;9.70;99.90;;;;;;4164913;28;20486;-82
2021/05/20 01:11:34;;;;;;;3.80;2.70;;;9.60;99.90;;;;;;4173276;28;20633;-82
2021/05/20 01:13:36;;;;;;;3.33;2.37;;;9.60;99.90;;;;;;4175048;28;20872;-82
2021/05/20 01:15:38;;;;;;;3.57;2.50;;;9.70;99.90;;;;;;4171967;28;20211;-82
2021/05/20 01:17:39;;;;;;;3.80;2.10;;;9.80;99.90;;;;;;4174516;28;20215;-82
2021/05/20 01:19:43;;;;;;;2.67;2.10;;;10.20;99.90;;;;;;4173399;28;20937;-82
2021/05/20 01:21:46;;;;;;;3.80;2.63;;;9.70;99.90;;;;;;4169835;28;20601;-82
2021/05/20 01:23:47;;;;;;;4.23;2.23;;;9.70;99.90;;;;;;4160086;28;20258;-82
2021/05/20 01:25:50;;;;;;;3.20;2.40;;;9.70;99.90;;;;;;4169916;28;20210;-82
2021/05/20 01:27:53;;;;;;;4.13;2.63;;;9.60;99.90;;;;;;4167352;28;20229;-82
2021/05/20 01:29:54;;;;;;;2.97;2.37;;;9.60;99.90;;;;;;4162617;28;20707;-82
2021/05/20 01:31:55;;;;;;;3.20;2.30;;;9.50;99.90;;;;;;4161971;28;20214;-82
2021/05/20 01:33:56;;;;;;;3.47;2.60;;;9.60;99.90;;;;;;4166243;28;20485;-82
2021/05/20 01:35:57;;;;;;;4.20;2.90;;;9.60;99.90;;;;;;4167579;28;20211;-82
2021/05/20 01:40:49;;;;;;;4.13;2.83;;;9.50;99.90;;;;;;4169397;28;20288;-81
2021/05/20 01:42:51;;;;;;;4.73;2.60;;;9.50;99.90;;;;;;4172614;28;20202;-82
2021/05/20 01:44:53;;;;;;;3.53;2.50;;;9.40;99.90;;;;;;4168577;28;20908;-82
2021/05/20 01:46:54;;;;;;;4.90;2.70;;;9.50;99.90;;;;;;4167420;28;20473;-82
2021/05/20 01:48:56;;;;;;;3.63;2.40;;;9.40;99.90;;;;;;4166851;28;20211;-81
2021/05/20 01:51:01;;;;;;;4.13;2.47;;;9.40;99.90;;;;;;4167284;28;20489;-82
2021/05/20 01:53:03;;;;;;;3.70;2.63;;;9.40;99.90;;;;;;4180451;28;20516;-82
2021/05/20 01:55:06;;;;;;;3.07;2.53;;;9.40;99.90;;;;;;4181972;28;21002;-82
2021/05/20 01:57:07;;;;;;;4.57;3.10;;;9.40;99.90;;;;;;4175824;28;20210;-82
2021/05/20 01:59:09;;;;;;;3.90;2.80;;;9.50;99.90;;;;;;4176668;28;20472;-82
2021/05/20 02:01:11;;;;;;;3.73;2.93;;;9.50;99.90;;;;;;4168342;28;20458;-82
2021/05/20 02:03:12;;;;;;;5.10;2.80;;;9.50;99.90;;;;;;4177540;28;20515;-82
2021/05/20 02:05:14;;;;;;;4.13;2.97;;;9.50;99.90;;;;;;4179465;28;20462;-82
2021/05/20 02:07:15;;;;;;;5.17;3.10;;;9.50;99.90;;;;;;4179436;28;20437;-82
2021/05/20 02:09:16;;;;;;;4.53;3.43;;;9.50;99.90;;;;;;4181079;28;20503;-82
2021/05/20 02:11:18;;;;;;;6.37;2.97;;;9.50;99.90;;;;;;4168145;28;20313;-82
2021/05/20 02:13:20;;;;;;;5.07;3.03;;;9.40;99.90;;;;;;4165734;28;20227;-82
2021/05/20 02:15:21;;;;;;;5.13;2.60;;;9.50;99.90;;;;;;4166333;28;20203;-81
2021/05/20 02:17:23;;;;;;;4.20;2.70;;;9.40;99.90;;;;;;4181807;28;20453;-81
2021/05/20 02:19:25;;;;;;;5.83;3.13;;;9.50;99.90;;;;;;4172778;28;20234;-81
2021/05/20 02:21:26;;;;;;;5.27;3.20;;;9.50;99.90;;;;;;4169098;28;20223;-81
2021/05/20 02:23:28;;;;;;;4.07;2.73;;;9.50;99.90;;;;;;4170625;28;20466;-81
2021/05/20 02:25:30;;;;;;;5.07;3.07;;;9.50;99.90;;;;;;4167541;28;20242;-81
2021/05/20 02:27:32;;;;;;;4.80;3.30;;;9.50;99.90;;;;;;4166786;28;20470;-81
2021/05/20 02:29:33;;;;;;;6.23;3.30;;;9.50;99.90;;;;;;4178953;28;20476;-81
2021/05/20 02:31:34;;;;;;;4.90;3.10;;;9.50;99.90;;;;;;4181977;28;20472;-82
2021/05/20 02:33:35;;;;;;;7.57;3.40;;;9.40;99.90;;;;;;4169804;28;20481;-82
2021/05/20 02:35:37;;;;;;;5.07;3.43;;;9.40;99.90;;;;;;4160477;28;20469;-82
2021/05/20 02:37:39;;;;;;;3.57;2.80;;;9.40;99.90;;;;;;4161719;28;20474;-82
2021/05/20 02:39:40;;;;;;;8.87;3.40;;;9.40;99.90;;;;;;4157491;28;21007;-82
2021/05/20 02:41:42;;;;;;;4.17;2.90;;;9.40;99.90;;;;;;4173600;28;20838;-82
2021/05/20 02:43:44;;;;;;;3.97;2.87;;;9.40;99.90;;;;;;4166186;28;20496;-81
2021/05/20 02:45:45;;;;;;;6.23;3.20;;;9.40;99.90;;;;;;4168568;28;20527;-82
2021/05/20 02:47:48;;;;;;;5.27;3.37;;;9.40;99.90;;;;;;4182256;28;20456;-82
2021/05/20 02:49:49;;;;;;;7.67;3.70;;;9.40;99.90;;;;;;4170732;28;20496;-82
2021/05/20 02:51:50;;;;;;;5.20;3.80;;;9.40;99.90;;;;;;4168178;28;20219;-82
2021/05/20 02:53:52;;;;;;;4.53;3.13;;;9.40;99.90;;;;;;4175795;28;20226;-82
2021/05/20 02:55:53;;;;;;;5.77;3.67;;;9.40;99.90;;;;;;4177439;28;20219;-82
2021/05/20 02:57:56;;;;;;;8.10;4.50;;;9.40;99.90;;;;;;4169234;28;20586;-82
2021/05/20 02:59:58;;;;;;;6.73;4.43;;;9.40;99.90;;;;;;4167714;28;20512;-82
2021/05/20 03:02:03;;;;;;;8.93;4.77;;;9.40;99.90;;;;;;4167556;28;20214;-82
2021/05/20 03:04:04;;;;;;;8.73;4.63;;;9.50;99.90;;;;;;4163018;28;20458;-82
2021/05/20 03:06:06;;;;;;;5.87;4.23;;;9.40;99.90;;;;;;4164691;28;20203;-82
2021/05/20 03:08:11;;;;;;;6.20;4.53;;;9.40;99.90;;;;;;4156640;28;20469;-82
2021/05/20 03:10:13;;;;;;;7.77;4.90;;;9.40;99.90;;;;;;4156593;28;20477;-82
2021/05/20 03:12:14;;;;;;;5.93;3.80;;;9.40;99.90;;;;;;4158592;28;20476;-82
2021/05/20 03:14:16;;;;;;;6.27;4.10;;;9.40;99.90;;;;;;4164182;28;21016;-82
2021/05/20 03:16:18;;;;;;;7.33;4.37;;;9.40;99.90;;;;;;4162361;28;20492;-82
2021/05/20 03:18:19;;;;;;;10.13;5.30;;;9.40;99.90;;;;;;4163858;28;20485;-82
2021/05/20 03:20:20;;;;;;;5.63;3.70;;;9.40;99.90;;;;;;4156649;28;20494;-82
2021/05/20 03:22:22;;;;;;;7.00;4.10;;;9.40;99.90;;;;;;4161218;28;20977;-81
2021/05/20 03:24:23;;;;;;;5.57;3.87;;;9.40;99.90;;;;;;4172999;28;20450;-82
2021/05/20 03:26:24;;;;;;;6.27;3.73;;;9.30;99.90;;;;;;4165092;28;20469;-81
2021/05/20 03:28:26;;;;;;;6.50;3.93;;;9.30;99.90;;;;;;4162753;28;20549;-82
2021/05/20 03:30:27;;;;;;;9.67;5.30;;;9.40;99.90;;;;;;4169244;28;20498;-82
2021/05/20 03:32:29;;;;;;;7.43;4.20;;;9.40;99.90;;;;;;4174454;28;20465;-84
2021/05/20 03:34:30;;;;;;;5.87;3.97;;;9.40;99.90;;;;;;4179740;28;20521;-82
2021/05/20 03:36:32;;;;;;;8.93;5.23;;;9.40;99.90;;;;;;4174289;28;20477;-81
2021/05/20 03:38:33;;;;;;;7.47;4.77;;;9.40;99.90;;;;;;4181421;28;20469;-82
2021/05/20 03:40:34;;;;;;;8.47;5.27;;;9.40;99.90;;;;;;4177157;28;20244;-82
2021/05/20 03:42:36;;;;;;;6.17;4.37;;;9.40;99.90;;;;;;4177654;28;20458;-82
2021/05/20 03:44:37;;;;;;;7.43;5.10;;;9.40;99.90;;;;;;4177860;28;20545;-81
2021/05/20 03:46:38;;;;;;;7.30;4.57;;;9.40;99.90;;;;;;4176928;28;20466;-81
2021/05/20 03:48:40;;;;;;;7.27;4.70;;;9.40;99.90;;;;;;4176410;28;20494;-82
2021/05/20 03:50:42;;;;;;;7.30;4.53;;;9.50;99.90;;;;;;4176766;28;20460;-82
2021/05/20 03:52:43;;;;;;;5.67;3.80;;;9.50;99.90;;;;;;4163367;28;21001;-81
2021/05/20 03:54:44;;;;;;;7.13;3.97;;;9.50;99.90;;;;;;4167802;28;20231;-81
2021/05/20 03:56:46;;;;;;;8.33;4.30;;;9.50;99.90;;;;;;4167474;28;20985;-81
2021/05/20 03:58:47;;;;;;;6.70;4.23;;;9.50;99.90;;;;;;4171250;28;20478;-81
2021/05/20 04:00:48;;;;;;;8.37;4.63;;;9.50;99.90;;;;;;4166779;28;20675;-81
2021/05/20 04:02:49;;;;;;;5.47;3.70;;;9.50;99.90;;;;;;4171119;28;20214;-81
2021/05/20 04:04:51;;;;;;;6.40;4.13;;;9.50;99.90;;;;;;4169790;28;20218;-81
2021/05/20 04:06:52;;;;;;;5.83;4.30;;;9.50;99.90;;;;;;4170292;28;20210;-80
2021/05/20 04:08:54;;;;;;;6.07;3.73;;;9.90;99.90;;;;;;4169189;28;20215;-81
2021/05/20 04:10:55;;;;;;;6.67;3.80;;;9.60;99.90;;;;;;4170398;28;20223;-81
2021/05/20 04:12:57;;;;;;;5.80;3.70;;;9.60;99.90;;;;;;4169990;28;20597;-81
2021/05/20 04:14:58;;;;;;;5.00;3.43;;;9.60;99.90;;;;;;4169907;28;20474;-82
2021/05/20 04:16:59;;;;;;;5.90;3.43;;;9.60;99.90;;;;;;4172340;28;20210;-82
2021/05/20 04:19:02;;;;;;;8.10;3.60;;;9.60;99.90;;;;;;4170476;28;20218;-82
2021/05/20 04:21:05;;;;;;;5.17;3.70;;;9.60;99.90;;;;;;4172104;28;20211;-82
2021/05/20 04:23:06;;;;;;;7.17;4.17;;;9.60;99.90;;;;;;4170286;28;20207;-82
2021/05/20 04:25:08;;;;;;;7.00;4.17;;;9.60;99.90;;;;;;4170717;28;20246;-82
2021/05/20 04:27:09;;;;;;;7.17;4.10;;;9.60;99.90;;;;;;4184311;28;20202;-82
2021/05/20 04:29:10;;;;;;;7.20;3.90;;;9.60;99.90;;;;;;4177412;28;20236;-82
2021/05/20 04:31:11;;;;;;;5.83;3.37;;;9.70;99.90;;;;;;4172893;28;20272;-82
2021/05/20 04:33:13;;;;;;;6.13;3.23;;;9.60;99.90;;;;;;4166567;28;20211;-84
2021/05/20 04:35:14;;;;;;;5.03;3.47;;;10.00;99.90;;;;;;4165799;28;20227;-82
2021/05/20 04:37:16;;;;;;;7.23;3.40;;;9.70;99.90;;;;;;4161630;28;20207;-82
2021/05/20 04:39:18;;;;;;;6.20;3.57;;;9.70;99.90;;;;;;4162468;28;20235;-82
2021/05/20 04:41:19;;;;;;;7.53;4.10;;;9.70;99.90;;;;;;4169400;28;20211;-82
2021/05/20 04:43:20;;;;;;;6.07;3.20;;;9.70;99.90;;;;;;4162988;28;20232;-82
2021/05/20 04:45:22;;;;;;;4.97;3.70;;;9.70;99.90;;;;;;4172781;28;20958;-82
2021/05/20 04:47:23;;;;;;;5.10;3.50;;;9.70;99.90;;;;;;4178903;28;20464;-83
2021/05/20 04:49:24;;;;;;;5.00;3.40;;;9.70;99.90;;;;;;4173966;28;20580;-82
2021/05/20 04:51:25;;;;;;;5.30;3.40;;;9.70;99.90;;;;;;4170169;28;20218;-82
2021/05/20 04:53:28;;;;;;;8.23;3.93;;;9.80;99.90;;;;;;4168943;28;20494;-81
2021/05/20 04:55:31;;;;;;;5.50;3.93;;;9.90;99.90;;;;;;4174439;28;20971;-80
2021/05/20 04:57:32;;;;;;;6.17;3.67;;;9.80;99.90;;;;;;4170954;28;20215;-80
2021/05/20 04:59:33;;;;;;;7.60;3.87;;;9.90;99.90;;;;;;4172502;28;20246;-80
2021/05/20 05:01:35;;;;;;;4.03;2.93;;;9.80;99.90;;;;;;4169310;28;21130;-80
2021/05/20 05:03:36;;;;;;;4.50;3.23;;;9.80;99.90;;;;;;4171334;28;20559;-80
2021/05/20 05:05:37;;;;;;;5.17;3.60;;;9.80;99.90;;;;;;4172779;28;20261;-80
2021/05/20 05:07:39;;;;;;;9.47;3.80;;;9.80;99.90;;;;;;4167255;28;20629;-80
2021/05/20 05:09:41;;;;;;;6.23;3.70;;;9.90;99.90;;;;;;4172543;28;20231;-82
2021/05/20 05:11:42;;;;;;;5.50;3.80;;;9.90;99.90;;;;;;4171095;28;20213;-82
2021/05/20 05:13:43;;;;;;;5.93;3.50;;;9.90;99.90;;;;;;4178332;28;20275;-82
2021/05/20 05:15:45;;;;;;;6.30;4.07;;;9.90;99.90;;;;;;4179107;28;20208;-83
2021/05/20 05:17:46;;;;;;;5.07;3.70;;;9.90;99.90;;;;;;4177418;28;20207;-82
2021/05/20 05:19:47;;;;;;;6.17;3.80;;;9.90;99.90;;;;;;4172636;28;20231;-82
2021/05/20 05:21:48;;;;;;;5.90;3.70;;;9.90;99.90;;;;;;4170407;28;20573;-82
2021/05/20 05:23:50;;;;;;;5.87;4.10;;;10.00;99.90;;;;;;4166471;28;20824;-80
2021/05/20 05:25:52;;;;;;;5.93;3.57;;;10.00;99.90;;;;;;4169137;28;20210;-83
2021/05/20 05:27:53;;;;;;;4.40;3.07;;;10.00;99.90;;;;;;4169765;28;20618;-82
2021/05/20 05:29:54;;;;;;;8.67;4.47;;;10.00;99.90;;;;;;4169152;28;20238;-83
2021/05/20 05:31:55;;;;;;;24.50;4.60;;;10.40;99.90;;;;;;4166489;28;20227;-83
2021/05/20 05:33:57;;;;;;;6.77;4.53;;;10.10;99.90;;;;;;4169526;28;20234;-82
2021/05/20 05:35:58;;;;;;;5.50;3.70;;;10.10;99.90;;;;;;4169876;28;20203;-81
2021/05/20 05:38:00;;;;;;;5.17;3.63;;;10.20;99.90;;;;;;4172619;28;20207;-80
2021/05/20 05:40:01;;;;;;;5.07;3.70;;;10.50;99.90;;;;;;4176089;28;20269;-83
2021/05/20 05:42:04;;;;;;;4.07;3.10;;;10.30;99.90;;;;;;4169140;28;20223;-79
2021/05/20 05:44:05;;;;;;;6.10;4.30;;;10.30;99.90;;;;;;4169302;28;20214;-79
2021/05/20 05:46:07;;;;;;;4.77;3.80;;;10.40;99.90;;;;;;4164757;28;20208;-80
2021/05/20 05:48:11;;;;;;;7.03;4.30;;;10.50;99.90;;;;;;4165498;28;20221;-80
2021/05/20 05:50:14;;;;;;;5.73;3.83;;;10.50;99.90;;;;;;4168276;28;20237;-82
2021/05/20 05:52:19;;;;;;;7.20;4.00;;;10.50;99.90;;;;;;4163115;28;20589;-80
2021/05/20 05:54:20;;;;;;;5.90;3.70;;;10.50;99.90;;;;;;4174466;28;20231;-82
2021/05/20 05:56:22;;;;;;;4.80;3.57;;;10.60;99.90;;;;;;4177030;28;20192;-82
2021/05/20 05:58:24;;;;;;;5.27;3.43;;;10.60;99.90;;;;;;4168428;28;20213;-82
2021/05/20 06:00:25;;;;;;;6.13;3.70;;;10.60;99.90;;;;;;4166112;28;20632;-82
2021/05/20 06:02:27;;;;;;;7.70;4.63;;;10.60;99.90;;;;;;4167649;28;20211;-82
2021/05/20 06:04:30;;;;;;;6.27;3.83;;;10.80;99.90;;;;;;4178166;28;20719;-83
2021/05/20 06:06:31;;;;;;;4.87;3.60;;;10.60;99.90;;;;;;4173729;28;20246;-78
2021/05/20 06:08:33;;;;;;;29.13;13.70;;;10.60;99.90;;;;;;4172371;28;20223;-84
2021/05/20 06:10:36;;;;;;;44.70;24.00;;;10.60;99.90;;;;;;4173339;28;20231;-83
2021/05/20 06:12:38;;;;;;;10.20;5.73;;;10.60;99.90;;;;;;4175529;28;20273;-82
2021/05/20 06:14:40;;;;;;;8.67;5.17;;;10.60;99.90;;;;;;4165008;28;20234;-82
2021/05/20 06:16:42;;;;;;;8.83;4.80;;;10.70;99.90;;;;;;4160958;28;20223;-81
2021/05/20 06:18:43;;;;;;;7.57;4.60;;;10.70;99.90;;;;;;4160624;28;20208;-82
2021/05/20 06:20:44;;;;;;;7.47;4.30;;;10.70;99.90;;;;;;4178015;28;20216;-82
2021/05/20 06:22:47;;;;;;;6.67;4.10;;;10.70;99.90;;;;;;4167209;28;20279;-83
2021/05/20 06:24:48;;;;;;;5.97;4.10;;;10.70;99.90;;;;;;4160000;28;20201;-81
2021/05/20 06:26:49;;;;;;;6.53;4.37;;;10.80;99.90;;;;;;4175856;28;20716;-82
2021/05/20 06:28:50;;;;;;;6.73;4.80;;;10.80;99.90;;;;;;4170627;28;20203;-82
2021/05/20 06:30:53;;;;;;;7.77;4.97;;;10.90;99.90;;;;;;4165416;28;20200;-84
2021/05/20 06:32:54;;;;;;;7.60;4.73;;;11.00;99.90;;;;;;4172566;28;20243;-84
2021/05/20 06:34:55;;;;;;;9.43;4.73;;;11.00;99.90;;;;;;4164971;28;20816;-83
2021/05/20 06:36:59;;;;;;;7.93;4.30;;;11.00;99.90;;;;;;4169795;28;20209;-85
2021/05/20 06:39:00;;;;;;;6.97;4.40;;;11.00;99.90;;;;;;4168865;28;20204;-83
2021/05/20 06:41:05;;;;;;;8.30;4.73;;;11.10;99.90;;;;;;4183090;28;20228;-83
2021/05/20 06:43:06;;;;;;;8.10;4.80;;;11.10;99.90;;;;;;4186088;28;20216;-83
2021/05/20 06:45:08;;;;;;;8.87;5.13;;;11.20;99.90;;;;;;4178760;28;20205;-82
2021/05/20 06:47:10;;;;;;;9.13;5.30;;;11.30;99.90;;;;;;4172582;28;20213;-83
2021/05/20 06:49:12;;;;;;;10.00;4.97;;;11.40;99.90;;;;;;4178557;28;20233;-85
2021/05/20 06:51:13;;;;;;;57.30;27.97;;;11.50;99.90;;;;;;4167882;28;20212;-79
2021/05/20 06:53:18;;;;;;;25.10;14.67;;;11.60;99.90;;;;;;4167432;28;20795;-82
2021/05/20 06:55:20;;;;;;;12.97;7.37;;;11.70;99.90;;;;;;4175915;28;20215;-83
2021/05/20 06:57:26;;;;;;;8.87;5.57;;;11.70;99.90;;;;;;4168045;28;20214;-82
2021/05/20 07:01:55;;;;;;;7.90;4.80;;;11.90;99.90;;;;;;4173317;22;20350;-78
2021/05/20 07:03:57;;;;;;;7.17;5.03;;;12.00;99.90;;;;;;4159977;28;20214;-78
2021/05/20 07:05:58;;;;;;;7.53;4.73;;;12.00;99.90;;;;;;4161178;28;20258;-78
2021/05/20 07:08:00;;;;;;;7.30;4.53;;;12.20;99.90;;;;;;4161888;28;20201;-78
2021/05/20 07:10:02;;;;;;;8.77;5.23;;;12.20;99.90;;;;;;4160446;28;20210;-78
2021/05/20 07:12:04;;;;;;;8.57;5.37;;;12.20;99.90;;;;;;4151839;28;20268;-78
2021/05/20 07:14:06;;;;;;;8.70;5.30;;;12.20;99.90;;;;;;4149013;28;20317;-78
2021/05/20 07:16:07;;;;;;;6.47;4.87;;;12.20;99.90;;;;;;4149977;28;20214;-78
2021/05/20 07:18:08;;;;;;;6.87;5.20;;;12.10;99.90;;;;;;4157137;28;20213;-79
2021/05/20 07:20:11;;;;;;;8.13;5.20;;;12.10;99.90;;;;;;4156855;28;20225;-78
2021/05/20 07:22:12;;;;;;;7.53;5.23;;;12.10;99.90;;;;;;4149605;28;20224;-78
2021/05/20 07:24:13;;;;;;;8.70;5.60;;;12.20;99.90;;;;;;4152047;28;20670;-78
2021/05/20 07:26:15;;;;;;;9.57;6.43;;;12.20;99.90;;;;;;4149656;28;20244;-78
2021/05/20 07:28:16;;;;;;;10.97;6.27;;;12.30;99.90;;;;;;4153660;28;20210;-79
2021/05/20 07:30:18;;;;;;;9.97;7.27;;;12.40;99.90;;;;;;4154560;28;20217;-78
2021/05/20 07:32:20;;;;;;;11.63;7.53;;;12.50;99.90;;;;;;4153118;28;20242;-78
2021/05/20 07:34:21;;;;;;;14.40;7.70;;;12.60;99.90;;;;;;4154455;28;20268;-78
2021/05/20 07:36:24;;;;;;;11.57;7.77;;;12.70;99.90;;;;;;4151890;28;20206;-78
2021/05/20 07:38:25;;;;;;;11.90;8.00;;;12.80;99.90;;;;;;4152420;28;20211;-78
2021/05/20 07:40:26;;;;;;;10.20;7.83;;;12.90;99.90;;;;;;4145553;28;20753;-78
2021/05/20 07:42:27;;;;;;;11.67;7.87;;;13.00;99.90;;;;;;4155919;28;20218;-78
2021/05/20 07:44:29;;;;;;;13.07;9.00;;;13.10;99.90;;;;;;4152739;28;20225;-78
2021/05/20 07:46:30;;;;;;;10.90;7.40;;;13.10;99.90;;;;;;4147244;28;20212;-78
2021/05/20 07:48:33;;;;;;;10.87;7.37;;;13.20;99.90;;;;;;4157166;28;20214;-78
2021/05/20 07:50:34;;;;;;;13.07;8.40;;;13.10;99.90;;;;;;4154870;28;20271;-78
2021/05/20 07:52:37;;;;;;;11.57;8.50;;;13.10;99.90;;;;;;4154406;28;20569;-78
2021/05/20 07:54:38;;;;;;;11.33;8.17;;;13.10;99.90;;;;;;4153048;28;20234;-78
2021/05/20 07:56:39;;;;;;;11.43;8.10;;;13.20;99.90;;;;;;4148129;28;20215;-78
2021/05/20 07:58:40;;;;;;;12.70;8.67;;;13.30;99.90;;;;;;4153211;28;20206;-78
2021/05/20 08:00:41;;;;;;;11.70;8.30;;;13.50;99.90;;;;;;4148665;28;20246;-78
2021/05/20 08:02:49;;;;;;;10.77;8.23;;;13.70;99.60;;;;;;4147738;28;20227;-78
2021/05/20 08:04:53;;;;;;;12.40;8.57;;;13.80;99.00;;;;;;4151656;28;20429;-78
2021/05/20 08:06:58;;;;;;;11.07;8.57;;;13.90;98.90;;;;;;4150656;28;20212;-78
2021/05/20 08:09:03;;;;;;;12.77;8.97;;;13.90;98.80;;;;;;4152151;28;20211;-79
2021/05/20 08:11:04;;;;;;;11.30;8.53;;;13.80;98.40;;;;;;4148998;28;20719;-78
2021/05/20 08:13:06;;;;;;;10.30;7.83;;;13.80;97.40;;;;;;4156695;28;20346;-78
2021/05/20 08:15:08;;;;;;;10.17;7.87;;;13.80;97.20;;;;;;4164558;28;20727;-78
2021/05/20 08:17:09;;;;;;;9.50;7.17;;;13.70;97.30;;;;;;4163170;28;20668;-78
2021/05/20 08:19:10;;;;;;;11.13;8.20;;;13.70;97.00;;;;;;4159560;28;20207;-78
2021/05/20 08:21:12;;;;;;;11.83;8.30;;;13.60;97.30;;;;;;4152841;28;20235;-79
2021/05/20 08:23:13;;;;;;;14.00;8.30;;;13.60;97.50;;;;;;4156728;28;20211;-78
2021/05/20 08:25:15;;;;;;;12.07;8.00;;;13.60;97.50;;;;;;4150160;28;20220;-78
2021/05/20 08:27:17;;;;;;;10.00;7.47;;;13.70;97.60;;;;;;4150690;28;20658;-78
2021/05/20 08:29:18;;;;;;;9.80;7.67;;;13.80;96.90;;;;;;4156390;28;20211;-78
2021/05/20 08:31:19;;;;;;;10.53;7.77;;;13.90;96.00;;;;;;4153630;28;20235;-78
2021/05/20 08:33:20;;;;;;;10.77;7.60;;;13.90;96.10;;;;;;4149875;28;20222;-78
2021/05/20 08:35:22;;;;;;;12.37;7.53;;;14.00;95.50;;;;;;4156201;28;20220;-78
2021/05/20 08:37:24;;;;;;;9.67;7.47;;;14.00;95.80;;;;;;4154729;28;20630;-78
2021/05/20 08:39:25;;;;;;;8.40;6.80;;;14.00;95.70;;;;;;4160522;28;20203;-78
2021/05/20 08:41:30;;;;;;;9.83;7.20;;;14.00;95.60;;;;;;4156981;28;20293;-78
2021/05/20 08:43:31;;;;;;;9.67;7.47;;;14.00;95.70;;;;;;4149964;28;20215;-78
2021/05/20 08:45:33;;;;;;;9.33;7.47;;;14.10;95.90;;;;;;4161440;28;20664;-78
2021/05/20 08:47:35;;;;;;;9.30;7.30;;;14.20;96.40;;;;;;4148199;28;20239;-78
2021/05/20 08:49:36;;;;;;;9.83;7.87;;;14.30;96.30;;;;;;4147792;28;20236;-78
2021/05/20 08:51:37;;;;;;;10.10;7.67;;;14.40;95.80;;;;;;4147888;28;20247;-78
2021/05/20 08:53:39;;;;;;;11.37;7.80;;;14.40;95.60;;;;;;4157053;28;20223;-78
2021/05/20 08:55:40;;;;;;;8.60;6.77;;;14.40;95.70;;;;;;4150539;28;20216;-79
2021/05/20 08:57:42;;;;;;;8.43;6.60;;;14.50;94.00;;;;;;4157100;28;20578;-78
2021/05/20 08:59:45;;;;;;;8.50;6.93;;;14.40;93.50;;;;;;4160571;28;20215;-79
2021/05/20 09:01:48;;;;;;;9.50;7.33;;;14.30;93.50;;;;;;4155709;28;20322;-78
2021/05/20 09:03:58;;;;;;;11.00;7.23;;;14.30;94.10;;;;;;4149043;28;20660;-78
2021/05/20 09:06:04;;;;;;;10.23;8.07;;;14.20;94.70;;;;;;4147633;28;20235;-78
2021/05/20 09:08:10;;;;;;;10.37;8.10;;;14.30;95.00;;;;;;4158927;28;20207;-78
2021/05/20 09:10:16;;;;;;;10.70;8.03;;;14.30;95.30;;;;;;4164158;28;20210;-78
2021/05/20 09:12:20;;;;;;;11.30;8.37;;;14.30;94.60;;;;;;4162906;28;20631;-78
2021/05/20 09:14:31;;;;;;;8.93;7.10;;;14.30;94.30;;;;;;4164543;28;20232;-78
2021/05/20 09:16:36;;;;;;;9.17;7.13;;;14.30;94.00;;;;;;4164922;28;20222;-79
2021/05/20 09:18:40;;;;;;;8.73;6.60;;;14.30;93.50;;;;;;4152839;28;20208;-78
2021/05/20 09:20:43;;;;;;;9.20;6.17;;;14.40;92.70;;;;;;4155446;28;20231;-78
2021/05/20 09:22:45;;;;;;;7.03;5.60;;;14.40;92.50;;;;;;4154217;28;20211;-79
2021/05/20 09:24:49;;;;;;;8.73;6.20;;;14.30;92.00;;;;;;4157467;28;20219;-78
2021/05/20 09:26:50;;;;;;;9.10;6.20;;;14.40;92.50;;;;;;4144951;28;20214;-78
2021/05/20 09:28:51;;;;;;;7.93;6.13;;;14.40;92.80;;;;;;4156617;28;20211;-79
2021/05/20 09:30:53;;;;;;;7.23;5.80;;;14.60;92.10;;;;;;4153449;28;20228;-78
2021/05/20 09:32:57;;;;;;;8.30;6.13;;;14.80;91.90;;;;;;4155198;28;20247;-78
2021/05/20 09:35:00;;;;;;;6.67;5.20;;;15.10;92.50;;;;;;4163356;28;20236;-78
2021/05/20 09:37:08;;;;;;;8.07;5.57;;;15.20;90.60;;;;;;4162027;28;20556;-78
2021/05/20 09:39:10;;;;;;;7.37;4.97;;;15.20;86.60;;;;;;4153574;28;20219;-78
2021/05/20 09:41:18;;;;;;;5.73;4.67;;;15.10;85.20;;;;;;4150264;28;20582;-79
2021/05/20 09:43:21;;;;;;;6.67;4.60;;;15.10;86.50;;;;;;4157617;28;20220;-79
2021/05/20 09:45:24;;;;;;;6.80;4.50;;;15.20;86.00;;;;;;4156469;28;20232;-78
2021/05/20 09:47:29;;;;;;;6.90;4.73;;;15.30;85.60;;;;;;4152450;28;20685;-78
2021/05/20 09:49:30;;;;;;;6.20;4.80;;;15.50;85.10;;;;;;4153739;28;20276;-79
2021/05/20 09:51:32;;;;;;;7.40;4.73;;;15.60;82.50;;;;;;4149924;28;20258;-78
2021/05/20 09:53:44;;;;;;;5.83;4.33;;;15.70;80.30;;;;;;4151993;28;20216;-78
2021/05/20 09:55:48;;;;;;;6.00;4.33;;;15.70;77.80;;;;;;4150049;28;20217;-78
2021/05/20 09:57:49;;;;;;;5.57;4.00;;;15.70;77.70;;;;;;4164714;28;20245;-78
2021/05/20 10:00:05;;;;;;;5.17;4.13;;;15.70;76.70;;;;;;4163998;28;20216;-80
2021/05/20 10:02:16;;;;;;;4.80;3.80;;;15.80;76.70;;;;;;4149382;28;20217;-79
2021/05/20 10:04:29;;;;;;;5.70;3.70;;;16.00;76.70;;;;;;4153616;28;20226;-79
2021/05/20 10:06:38;;;;;;;7.40;4.00;;;16.30;73.00;;;;;;4155197;28;20204;-78
2021/05/20 10:08:40;;;;;;;4.83;3.93;;;16.40;71.10;;;;;;4156051;28;20219;-78
2021/05/20 10:10:43;;;;;;;5.37;4.30;;;16.50;71.60;;;;;;4154199;28;20232;-79
2021/05/20 10:12:45;;;;;;;5.93;4.00;;;16.60;69.90;;;;;;4151583;28;20227;-79
2021/05/20 10:14:48;;;;;;;8.03;4.07;;;16.60;69.60;;;;;;4151571;28;20238;-78
2021/05/20 10:16:50;;;;;;;5.60;4.33;;;16.50;69.70;;;;;;4151124;28;20219;-78
2021/05/20 10:18:52;;;;;;;7.97;5.00;;;16.40;69.40;;;;;;4156280;28;20215;-78
2021/05/20 10:20:56;;;;;;;9.53;5.00;;;16.40;70.20;;;;;;4154733;28;20235;-78
2021/05/20 10:22:59;;;;;;;6.93;4.70;;;16.30;71.30;;;;;;4148454;28;20341;-78
2021/05/20 10:25:00;;;;;;;6.47;4.80;;;16.40;72.80;;;;;;4152172;28;20554;-78
2021/05/20 10:27:02;;;;;;;6.73;4.20;;;16.60;71.80;;;;;;4151487;28;20204;-78
2021/05/20 10:29:04;;;;;;;6.03;4.50;;;16.80;70.60;;;;;;4154100;28;20754;-78
2021/05/20 10:31:05;;;;;;;9.10;5.00;;;16.90;70.70;;;;;;4152323;28;20227;-78
2021/05/20 10:33:07;;;;;;;7.23;5.40;;;17.10;70.30;;;;;;4154313;28;20708;-78
2021/05/20 10:35:11;;;;;;;8.67;4.70;;;17.30;67.60;;;;;;4154356;28;20255;-78
2021/05/20 10:37:26;;;;;;;6.63;5.03;;;17.40;67.70;;;;;;4154823;28;20295;-78
2021/05/20 10:39:27;;;;;;;6.77;5.17;;;17.40;66.20;;;;;;4146973;28;20661;-78
2021/05/20 10:41:28;;;;;;;6.27;5.20;;;17.50;67.40;;;;;;4156842;28;20238;-78
2021/05/20 10:43:29;;;;;;;6.10;4.73;;;17.50;68.40;;;;;;4147411;28;20208;-79